Time;durP1;ratioP1;P1;durP2;ratioP2;P2;SDS_P1;SDS_P2;PMS_P1;PMS_P2;Temp;Humidity;BMP_temperature;BMP_pressure;BME280_temperature;BME280_humidity;BME280_pressure;Samples;Min_cycle;Max_cycle;Signal;HPM_P1;HPM_P2
2022/09/05 00:00:08;;;;;;;3.15;2.53;;;;;;;13.81;100.00;96338.75;1043331;28;20024;-71
2022/09/05 00:00:39;;;;;;;5.38;2.58;;;;;;;13.82;100.00;96343.78;1032869;28;20029;-71
2022/09/05 00:01:22;;;;;;;4.03;3.08;;;;;;;13.79;100.00;96336.41;1034785;28;20041;-70
2022/09/05 00:02:01;;;;;;;5.03;3.67;;;;;;;13.81;100.00;96339.53;1031026;28;20037;-71
2022/09/05 00:02:45;;;;;;;5.47;2.90;;;;;;;13.81;100.00;96339.53;1031063;28;20027;-71
2022/09/05 00:03:21;;;;;;;2.85;2.58;;;;;;;13.80;100.00;96337.97;1034992;28;20026;-72
2022/09/05 00:03:56;;;;;;;4.35;2.78;;;;;;;13.81;100.00;96338.75;1026786;28;20030;-71
2022/09/05 00:04:41;;;;;;;3.90;3.10;;;;;;;13.81;100.00;96342.19;1022877;29;20114;-69
2022/09/05 00:05:16;;;;;;;6.47;2.80;;;;;;;13.81;100.00;96333.47;1027079;28;20426;-70
2022/09/05 00:06:10;;;;;;;5.55;3.40;;;;;;;13.82;100.00;96341.16;1034166;28;20455;-71
2022/09/05 00:06:44;;;;;;;4.32;3.03;;;;;;;13.81;100.00;96334.28;1034764;28;20021;-71
2022/09/05 00:07:22;;;;;;;3.33;2.78;;;;;;;13.82;100.00;96335.88;1031181;28;20515;-71
2022/09/05 00:08:22;;;;;;;3.88;2.90;;;;;;;13.82;100.00;96335.88;1031047;28;20021;-71
2022/09/05 00:09:12;;;;;;;3.15;2.70;;;;;;;13.79;100.00;96331.13;1032084;28;20022;-72
2022/09/05 00:09:51;;;;;;;5.38;3.22;;;;;;;13.80;100.00;96332.69;1033799;28;20075;-71
2022/09/05 00:10:43;;;;;;;4.55;3.97;;;;;;;13.79;100.00;96336.41;1027215;28;20579;-71
2022/09/05 00:11:14;;;;;;;3.13;2.80;;;;;;;13.78;100.00;96334.84;1027108;28;20086;-72
2022/09/05 00:11:48;;;;;;;3.10;2.80;;;;;;;13.72;100.00;96322.72;1028720;28;20122;-70
2022/09/05 00:12:18;;;;;;;4.63;2.83;;;;;;;13.76;100.00;96336.94;1030393;28;20018;-71
2022/09/05 00:12:49;;;;;;;3.88;2.88;;;;;;;13.76;100.00;96331.66;1026907;28;20035;-71
2022/09/05 00:13:24;;;;;;;4.72;2.85;;;;;;;13.74;100.00;96336.41;1025395;28;20015;-72
2022/09/05 00:14:19;;;;;;;3.22;2.88;;;;;;;13.75;100.00;96329.28;1035125;28;20780;-70
2022/09/05 00:15:10;;;;;;;4.68;3.20;;;;;;;13.74;100.00;96339.03;1035084;28;20068;-70
2022/09/05 00:16:02;;;;;;;6.97;3.20;;;;;;;13.72;100.00;96338.53;1036971;28;20017;-71
2022/09/05 00:16:36;;;;;;;4.45;3.10;;;;;;;13.70;100.00;96340.63;1038934;28;20029;-70
2022/09/05 00:17:37;;;;;;;4.00;3.10;;;;;;;13.68;100.00;96335.66;1034819;28;20092;-72
2022/09/05 00:18:21;;;;;;;6.13;3.47;;;;;;;13.64;100.00;96333.78;1032324;28;20102;-71
2022/09/05 00:19:01;;;;;;;6.50;3.78;;;;;;;13.57;100.00;96328.78;1037085;28;20059;-71
2022/09/05 00:19:38;;;;;;;6.00;3.47;;;;;;;13.56;100.00;96332.50;1039086;28;20104;-72
2022/09/05 00:20:15;;;;;;;8.23;3.38;;;;;;;13.54;100.00;96339.09;1043427;28;20100;-71
2022/09/05 00:21:07;;;;;;;6.00;3.20;;;;;;;13.49;100.00;96337.25;1039475;28;20025;-70
2022/09/05 00:21:56;;;;;;;3.05;2.75;;;;;;;13.47;100.00;96338.56;1043504;28;20160;-68
2022/09/05 00:22:41;;;;;;;3.33;3.03;;;;;;;13.41;100.00;96330.69;1039160;28;20033;-71
2022/09/05 00:23:40;;;;;;;3.78;3.13;;;;;;;13.41;100.00;96332.50;1031243;28;20041;-71
2022/09/05 00:24:30;;;;;;;4.85;3.50;;;;;;;13.40;100.00;96336.97;1032765;28;20034;-71
2022/09/05 00:25:06;;;;;;;7.78;3.45;;;;;;;13.37;100.00;96336.72;1036853;28;20018;-72
2022/09/05 00:25:42;;;;;;;12.40;3.63;;;;;;;13.35;100.00;96331.75;1039250;28;20033;-71
2022/09/05 00:27:07;;;;;;;6.07;3.15;;;;;;;13.30;100.00;96331.72;1039011;28;20520;-71
2022/09/05 00:27:45;;;;;;;5.43;3.17;;;;;;;13.29;100.00;96324.88;1030613;28;20530;-71
2022/09/05 00:28:31;;;;;;;4.47;3.70;;;;;;;13.25;100.00;96326.47;1030920;28;20030;-69
2022/09/05 00:29:13;;;;;;;7.05;3.80;;;;;;;13.26;100.00;96322.00;1021950;29;20024;-69
2022/09/05 00:30:07;;;;;;;5.88;3.85;;;;;;;13.24;100.00;96329.31;1022706;29;20027;-71
2022/09/05 00:31:01;;;;;;;3.97;3.30;;;;;;;13.23;100.00;96323.28;1037196;28;20511;-70
2022/09/05 00:31:49;;;;;;;3.65;3.05;;;;;;;13.23;100.00;96323.28;1042880;28;20494;-70
2022/09/05 00:32:48;;;;;;;4.63;3.35;;;;;;;13.24;100.00;96324.88;1043115;28;20534;-70
2022/09/05 00:33:30;;;;;;;4.53;3.63;;;;;;;13.24;100.00;96322.22;1040979;28;20013;-69
2022/09/05 00:34:25;;;;;;;5.90;3.40;;;;;;;13.24;100.00;96324.88;1038944;28;20471;-68
2022/09/05 00:35:08;;;;;;;5.65;3.55;;;;;;;13.25;100.00;96315.16;1036029;28;20392;-71
2022/09/05 00:35:44;;;;;;;4.40;3.25;;;;;;;13.18;100.00;96304.84;1039737;28;20398;-69
2022/09/05 00:36:30;;;;;;;3.63;3.15;;;;;;;13.25;100.00;96321.19;1035238;28;20017;-71
2022/09/05 00:37:00;;;;;;;4.25;3.30;;;;;;;13.19;100.00;96309.03;1039034;28;20056;-72
2022/09/05 00:37:34;;;;;;;6.30;3.38;;;;;;;13.23;100.00;96312.72;1026662;28;20505;-72
2022/09/05 00:38:18;;;;;;;4.68;3.38;;;;;;;13.21;100.00;96312.19;1029295;28;20133;-71
2022/09/05 00:39:06;;;;;;;4.97;3.40;;;;;;;13.23;100.00;96318.00;1029482;28;20067;-68
2022/09/05 00:39:38;;;;;;;4.07;3.53;;;;;;;13.23;100.00;96312.72;1033823;28;20060;-71
2022/09/05 00:40:09;;;;;;;4.60;3.10;;;;;;;13.24;100.00;96316.16;1043174;28;20021;-69
2022/09/05 00:40:56;;;;;;;7.78;3.63;;;;;;;13.21;100.00;96309.56;1040533;28;20534;-69
2022/09/05 00:41:26;;;;;;;4.45;3.30;;;;;;;13.24;100.00;96311.69;1034912;28;20438;-71
2022/09/05 00:42:12;;;;;;;4.80;3.20;;;;;;;13.23;100.00;96318.00;1031036;28;20030;-71
2022/09/05 00:42:43;;;;;;;4.40;3.50;;;;;;;13.22;100.00;96321.69;1031585;28;20101;-72
2022/09/05 00:43:20;;;;;;;4.22;3.55;;;;;;;13.20;100.00;96327.22;1027194;28;20026;-71
2022/09/05 00:43:51;;;;;;;6.25;3.67;;;;;;;13.17;100.00;96319.06;1026822;28;20543;-72
2022/09/05 00:44:23;;;;;;;6.30;3.20;;;;;;;13.16;100.00;96320.91;1023926;28;20026;-72
2022/09/05 00:44:57;;;;;;;4.78;3.58;;;;;;;13.15;100.00;96321.19;1022780;29;20435;-70
2022/09/05 00:45:51;;;;;;;4.97;3.40;;;;;;;13.14;100.00;96330.13;1026190;28;20027;-72
2022/09/05 00:46:29;;;;;;;4.45;3.22;;;;;;;13.12;100.00;96334.88;1026677;28;20014;-71
2022/09/05 00:47:04;;;;;;;9.50;3.72;;;;;;;13.12;100.00;96334.88;1031208;28;20439;-71
2022/09/05 00:47:42;;;;;;;6.85;3.90;;;;;;;13.03;100.00;96323.28;1039107;28;20604;-72
2022/09/05 00:48:30;;;;;;;11.45;3.92;;;;;;;13.09;100.00;96335.41;1033369;28;20014;-71
2022/09/05 00:49:13;;;;;;;6.15;3.33;;;;;;;13.06;100.00;96339.34;1034515;28;20025;-67
2022/09/05 00:49:48;;;;;;;4.57;3.78;;;;;;;13.04;100.00;96338.03;1035162;28;20025;-71
2022/09/05 00:50:39;;;;;;;4.43;3.55;;;;;;;13.02;100.00;96343.56;1039049;28;20021;-70
2022/09/05 00:51:19;;;;;;;6.40;3.53;;;;;;;12.96;100.00;96340.13;1042501;28;20037;-69
2022/09/05 00:51:54;;;;;;;7.35;4.03;;;;;;;12.90;100.00;96330.63;1035101;28;20029;-69
2022/09/05 00:52:57;;;;;;;4.65;3.67;;;;;;;12.95;100.00;96343.81;1038876;28;20459;-70
2022/09/05 00:53:44;;;;;;;6.20;3.55;;;;;;;12.95;100.00;96346.47;1022507;29;20113;-71
2022/09/05 00:54:29;;;;;;;6.20;3.67;;;;;;;12.93;100.00;96343.28;1025172;28;20271;-71
2022/09/05 00:55:19;;;;;;;3.78;3.17;;;;;;;12.91;100.00;96348.03;1030865;28;20336;-69
2022/09/05 00:56:03;;;;;;;4.82;3.38;;;;;;;12.89;100.00;96347.50;1030915;28;20125;-70
2022/09/05 00:56:52;;;;;;;5.82;4.03;;;;;;;12.88;100.00;96343.28;1030242;28;20944;-69
2022/09/05 00:58:01;;;;;;;7.72;3.78;;;;;;;12.86;100.00;96348.03;1039262;28;20022;-70
2022/09/05 00:58:53;;;;;;;8.30;3.70;;;;;;;12.86;100.00;96349.88;1025106;28;20078;-71
2022/09/05 00:59:54;;;;;;;4.68;3.83;;;;;;;12.83;100.00;96353.03;1034140;28;20702;-71
2022/09/05 01:00:53;;;;;;;6.38;4.00;;;;;;;12.79;100.00;96344.84;1038889;28;20033;-69
2022/09/05 01:01:25;;;;;;;5.32;3.70;;;;;;;12.76;100.00;96345.38;1035328;28;20611;-71
2022/09/05 01:02:03;;;;;;;6.72;3.55;;;;;;;12.74;100.00;96350.09;1038979;28;20275;-70
2022/09/05 01:03:24;;;;;;;3.85;3.35;;;;;;;12.68;100.00;96346.69;1038843;28;20180;-71
2022/09/05 01:04:26;;;;;;;6.88;3.83;;;;;;;12.69;100.00;96352.75;1022566;29;20983;-72
2022/09/05 01:05:00;;;;;;;18.63;5.43;;;;;;;12.67;100.00;96352.19;1024639;28;20035;-71
2022/09/05 01:05:53;;;;;;;20.63;4.65;;;;;;;12.65;100.00;96343.78;1018554;29;20275;-71
2022/09/05 01:06:56;;;;;;;13.68;4.32;;;;;;;12.63;100.00;96356.41;1019398;28;20374;-70
2022/09/05 01:08:01;;;;;;;22.30;5.05;;;;;;;12.59;100.00;96358.75;1041612;28;20017;-71
2022/09/05 01:08:58;;;;;;;13.07;4.45;;;;;;;12.57;100.00;96360.84;1034764;28;20257;-71
2022/09/05 01:09:45;;;;;;;21.52;5.38;;;;;;;12.55;100.00;96362.97;1034466;28;20782;-70
2022/09/05 01:10:37;;;;;;;17.55;4.90;;;;;;;12.54;100.00;96363.22;1032538;28;20315;-70
2022/09/05 01:11:38;;;;;;;12.93;3.97;;;;;;;12.52;100.00;96365.34;1030671;28;20702;-69
2022/09/05 01:12:35;;;;;;;18.17;4.35;;;;;;;12.48;100.00;96360.59;1033602;28;20272;-71
2022/09/05 01:13:30;;;;;;;9.32;4.40;;;;;;;12.48;100.00;96365.84;1037517;28;20147;-72
2022/09/05 01:14:30;;;;;;;11.40;4.10;;;;;;;12.45;100.00;96374.25;1038771;28;20365;-70
2022/09/05 01:15:18;;;;;;;11.60;4.57;;;;;;;12.42;100.00;96374.78;1031163;28;20265;-72
2022/09/05 01:16:29;;;;;;;6.40;4.38;;;;;;;12.40;100.00;96371.59;1037107;28;20264;-70
2022/09/05 01:17:03;;;;;;;;;;;;;;;12.39;100.00;96369.22;1030526;28;20269;-72
2022/09/05 01:18:01;;;;;;;10.35;3.92;;;;;;;12.37;100.00;96368.69;1030530;28;19914;-69
2022/09/05 01:18:54;;;;;;;3.97;3.15;;;;;;;12.36;100.00;96367.91;1043004;28;20334;-71
2022/09/05 01:19:27;;;;;;;5.63;3.83;;;;;;;12.35;100.00;96373.44;1028483;28;20617;-72
2022/09/05 01:20:42;;;;;;;5.63;3.65;;;;;;;12.33;100.00;96368.41;1035077;28;20253;-70
2022/09/05 01:21:18;;;;;;;12.02;4.20;;;;;;;12.33;100.00;96367.63;1020758;29;20358;-71
2022/09/05 01:21:51;;;;;;;14.35;5.25;;;;;;;12.34;100.00;96369.19;1022401;29;20267;-71
2022/09/05 01:22:43;;;;;;;18.70;5.38;;;;;;;12.34;100.00;96370.03;1034818;28;20260;-70
2022/09/05 01:23:35;;;;;;;5.20;3.92;;;;;;;12.30;100.00;96368.94;1038922;28;20236;-70
2022/09/05 01:24:21;;;;;;;6.65;4.63;;;;;;;12.31;100.00;96367.09;1032581;28;20770;-70
2022/09/05 01:25:29;;;;;;;8.45;4.38;;;;;;;12.30;100.00;96374.19;1034880;28;20702;-71
2022/09/05 01:26:41;;;;;;;8.93;4.57;;;;;;;12.30;100.00;96371.56;1040650;28;20247;-72
2022/09/05 01:27:29;;;;;;;7.32;4.47;;;;;;;12.27;100.00;96364.19;1019598;29;20272;-69
2022/09/05 01:28:15;;;;;;;15.35;4.68;;;;;;;12.27;100.00;96366.81;1018460;29;20262;-70
2022/09/05 01:28:54;;;;;;;8.02;4.28;;;;;;;12.24;100.00;96359.47;1018294;29;21089;-71
2022/09/05 01:29:57;;;;;;;6.47;4.57;;;;;;;12.26;100.00;96365.22;1013967;29;20309;-72
2022/09/05 01:30:37;;;;;;;9.73;4.40;;;;;;;12.27;100.00;96370.25;1000866;29;20267;-71
2022/09/05 01:31:36;;;;;;;6.03;4.22;;;;;;;12.27;100.00;96366.81;1014390;29;20257;-71
2022/09/05 01:32:25;;;;;;;7.40;4.57;;;;;;;12.28;100.00;96368.41;1019875;28;20267;-71
2022/09/05 01:33:21;;;;;;;6.70;4.35;;;;;;;12.26;100.00;96367.88;1023796;28;20278;-70
2022/09/05 01:33:55;;;;;;;7.07;5.15;;;;;;;12.27;100.00;96366.81;1030580;28;20312;-69
2022/09/05 01:34:31;;;;;;;5.85;4.97;;;;;;;12.28;100.00;96371.03;1030792;28;20269;-72
2022/09/05 01:35:26;;;;;;;5.22;4.50;;;;;;;12.30;100.00;96366.28;1034921;28;20296;-71
2022/09/05 01:36:03;;;;;;;6.85;4.85;;;;;;;12.30;100.00;96365.50;1042897;28;20821;-71
2022/09/05 01:37:11;;;;;;;7.10;4.82;;;;;;;12.31;100.00;96369.72;1043521;28;20333;-72
2022/09/05 01:38:15;;;;;;;6.25;4.80;;;;;;;12.31;100.00;96365.28;1024906;28;20318;-72
2022/09/05 01:39:13;;;;;;;6.72;4.40;;;;;;;12.30;100.00;96368.94;1034073;28;20287;-70
2022/09/05 01:39:48;;;;;;;8.55;4.40;;;;;;;12.29;100.00;96372.63;1042742;28;20858;-71
2022/09/05 01:40:33;;;;;;;4.97;4.47;;;;;;;12.26;100.00;96367.88;1034859;28;20256;-71
2022/09/05 01:41:04;;;;;;;10.68;4.50;;;;;;;12.26;100.00;96368.66;1038702;28;20724;-71
2022/09/05 01:42:21;;;;;;;9.25;4.80;;;;;;;12.26;100.00;96367.88;1038868;28;20032;-71
2022/09/05 01:43:20;;;;;;;12.05;4.90;;;;;;;12.25;100.00;96367.09;1018324;29;20796;-71
2022/09/05 01:44:00;;;;;;;8.52;5.18;;;;;;;12.26;100.00;96367.88;1022481;29;20883;-71
2022/09/05 01:44:42;;;;;;;11.65;5.28;;;;;;;12.24;100.00;96364.72;1030088;28;20274;-71
2022/09/05 01:45:19;;;;;;;9.27;5.10;;;;;;;12.25;100.00;96372.34;1034792;28;20026;-71
2022/09/05 01:46:37;;;;;;;7.03;4.45;;;;;;;12.24;100.00;96369.97;1033155;28;20264;-70
2022/09/05 01:47:21;;;;;;;5.95;4.22;;;;;;;12.22;100.00;96369.44;1033116;28;20269;-70
2022/09/05 01:48:03;;;;;;;6.68;4.60;;;;;;;12.20;100.00;96358.38;1026179;28;20270;-72
2022/09/05 01:49:13;;;;;;;23.13;6.15;;;;;;;12.21;100.00;96365.22;1020610;28;20873;-71
2022/09/05 01:49:55;;;;;;;28.35;6.07;;;;;;;12.22;100.00;96361.53;1024326;28;20271;-71
2022/09/05 01:50:38;;;;;;;26.65;6.55;;;;;;;12.14;100.00;96359.38;1033910;28;20297;-71
2022/09/05 01:51:35;;;;;;;7.72;4.43;;;;;;;12.19;100.00;96362.06;1034762;28;20265;-71
2022/09/05 01:52:06;;;;;;;12.45;5.53;;;;;;;12.18;100.00;96369.16;1034661;28;20663;-71
2022/09/05 01:52:50;;;;;;;7.72;4.80;;;;;;;12.19;100.00;96369.94;1034586;28;20634;-71
2022/09/05 01:53:24;;;;;;;6.85;4.75;;;;;;;12.17;100.00;96364.94;1030663;28;20026;-71
2022/09/05 01:54:06;;;;;;;6.25;4.78;;;;;;;12.13;100.00;96357.81;1035391;28;20336;-71
2022/09/05 01:55:17;;;;;;;12.70;5.00;;;;;;;12.17;100.00;96367.59;1027059;28;20026;-70
2022/09/05 01:56:15;;;;;;;5.32;4.15;;;;;;;12.16;100.00;96367.81;1028697;28;20280;-71
2022/09/05 01:56:48;;;;;;;10.63;5.25;;;;;;;12.17;100.00;96366.78;1038632;28;20402;-70
2022/09/05 01:57:28;;;;;;;6.90;4.90;;;;;;;12.17;100.00;96366.78;1034736;28;20638;-69
2022/09/05 01:58:13;;;;;;;7.55;4.50;;;;;;;12.17;100.00;96364.13;1038651;28;20264;-70
2022/09/05 01:58:53;;;;;;;8.65;4.55;;;;;;;12.16;100.00;96365.19;1038270;28;20345;-72
2022/09/05 01:59:37;;;;;;;12.57;4.97;;;;;;;12.17;100.00;96364.13;1038140;28;20307;-72
2022/09/05 02:00:16;;;;;;;6.55;4.55;;;;;;;12.15;100.00;96366.25;1034612;28;20315;-71
2022/09/05 02:00:57;;;;;;;6.68;4.53;;;;;;;12.13;100.00;96360.44;1030598;28;20261;-68
2022/09/05 02:01:35;;;;;;;7.78;4.47;;;;;;;12.14;100.00;96370.72;1030480;28;20710;-70
2022/09/05 02:02:40;;;;;;;8.02;4.50;;;;;;;12.13;100.00;96371.75;1026714;28;20547;-71
2022/09/05 02:03:29;;;;;;;11.82;5.00;;;;;;;12.13;100.00;96376.22;1032145;28;20261;-70
2022/09/05 02:04:24;;;;;;;18.48;6.00;;;;;;;12.13;100.00;96373.59;1034371;28;20029;-71
2022/09/05 02:05:00;;;;;;;7.35;4.72;;;;;;;12.12;100.00;96372.03;1033648;28;20319;-71
2022/09/05 02:05:50;;;;;;;9.25;4.68;;;;;;;12.11;100.00;96373.09;1038734;28;20274;-72
2022/09/05 02:06:45;;;;;;;4.97;4.22;;;;;;;12.11;100.00;96370.44;1038871;28;20061;-72
2022/09/05 02:07:40;;;;;;;5.32;4.05;;;;;;;12.04;100.00;96357.53;1034572;28;20282;-71
2022/09/05 02:08:23;;;;;;;7.18;4.80;;;;;;;12.08;100.00;96357.81;1033011;28;20401;-71
2022/09/05 02:09:18;;;;;;;9.32;4.10;;;;;;;12.12;100.00;96362.28;1032236;28;20295;-71
2022/09/05 02:10:10;;;;;;;6.28;4.25;;;;;;;12.12;100.00;96372.81;1042179;28;20286;-70
2022/09/05 02:11:08;;;;;;;19.25;5.45;;;;;;;12.12;100.00;96372.03;1033226;28;20081;-71
2022/09/05 02:11:58;;;;;;;7.03;4.50;;;;;;;12.12;100.00;96366.75;1031060;28;20289;-70
2022/09/05 02:12:46;;;;;;;6.22;4.43;;;;;;;12.06;100.00;96367.78;1028628;28;20270;-71
2022/09/05 02:13:34;;;;;;;6.18;4.40;;;;;;;12.09;100.00;96367.28;1029938;28;20089;-71
2022/09/05 02:14:25;;;;;;;7.63;4.68;;;;;;;12.06;100.00;96367.78;1031215;28;20303;-71
2022/09/05 02:15:15;;;;;;;6.65;4.60;;;;;;;12.05;100.00;96366.22;1037411;28;20301;-73
2022/09/05 02:15:59;;;;;;;5.32;4.32;;;;;;;12.03;100.00;96372.50;1035668;28;20261;-71
2022/09/05 02:16:36;;;;;;;6.28;4.47;;;;;;;12.03;100.00;96372.50;1038812;28;20252;-70
2022/09/05 02:17:38;;;;;;;6.20;4.78;;;;;;;12.01;100.00;96376.44;1038658;28;20468;-71
2022/09/05 02:18:13;;;;;;;4.63;4.10;;;;;;;11.99;100.00;96373.28;1037298;28;20689;-71
2022/09/05 02:18:51;;;;;;;5.63;4.70;;;;;;;11.99;100.00;96379.31;1033722;28;20766;-69
2022/09/05 02:19:30;;;;;;;7.72;4.82;;;;;;;11.98;100.00;96363.81;1029999;28;20352;-71
2022/09/05 02:20:25;;;;;;;6.10;4.32;;;;;;;12.00;100.00;96373.03;1026482;28;20292;-71
2022/09/05 02:20:59;;;;;;;6.60;4.22;;;;;;;12.02;100.00;96378.81;1035117;28;20256;-69
2022/09/05 02:21:32;;;;;;;10.77;5.18;;;;;;;12.03;100.00;96375.13;1034668;28;20379;-69
2022/09/05 02:22:06;;;;;;;11.35;5.50;;;;;;;12.02;100.00;96381.44;1030380;28;20296;-72
2022/09/05 02:22:41;;;;;;;8.25;4.60;;;;;;;11.97;100.00;96376.16;1034652;28;20292;-72
2022/09/05 02:23:18;;;;;;;4.07;3.67;;;;;;;12.00;100.00;96380.91;1038871;28;20349;-70
2022/09/05 02:24:00;;;;;;;6.80;4.78;;;;;;;12.00;100.00;96380.91;1036479;28;20415;-71
2022/09/05 02:24:31;;;;;;;8.55;4.20;;;;;;;11.97;100.00;96381.44;1031142;28;20771;-71
2022/09/05 02:25:10;;;;;;;5.63;3.95;;;;;;;11.97;100.00;96375.34;1036580;28;20256;-71
2022/09/05 02:26:03;;;;;;;7.05;4.28;;;;;;;11.96;100.00;96379.81;1023689;29;20563;-72
2022/09/05 02:26:38;;;;;;;7.95;4.47;;;;;;;11.96;100.00;96381.66;1023572;29;20785;-71
2022/09/05 02:27:29;;;;;;;7.68;3.85;;;;;;;11.95;100.00;96375.63;1027548;28;20762;-69
2022/09/05 02:28:12;;;;;;;6.20;4.07;;;;;;;11.94;100.00;96378.53;1027303;28;20321;-71
2022/09/05 02:28:59;;;;;;;11.15;4.13;;;;;;;11.92;100.00;96378.75;1029015;28;20735;-71
2022/09/05 02:29:40;;;;;;;9.93;4.22;;;;;;;11.91;100.00;96376.41;1030760;28;20277;-71
2022/09/05 02:30:21;;;;;;;8.88;4.50;;;;;;;11.90;100.00;96370.31;1026563;28;20909;-70
2022/09/05 02:30:54;;;;;;;5.45;4.13;;;;;;;11.86;100.00;96363.22;1030246;28;20786;-69
2022/09/05 02:31:50;;;;;;;11.35;4.20;;;;;;;11.90;100.00;96372.94;1031564;28;20288;-70
2022/09/05 02:32:36;;;;;;;5.50;4.60;;;;;;;11.89;100.00;96374.00;1031775;28;20642;-73
2022/09/05 02:33:09;;;;;;;6.35;4.65;;;;;;;11.88;100.00;96372.44;1030809;28;20704;-70
2022/09/05 02:34:13;;;;;;;5.60;4.30;;;;;;;11.87;100.00;96370.03;1035590;28;20641;-70
2022/09/05 02:35:08;;;;;;;5.28;4.20;;;;;;;11.86;100.00;96374.50;1024460;28;20260;-71
2022/09/05 02:36:04;;;;;;;5.22;4.47;;;;;;;11.85;100.00;96375.56;1039799;28;20575;-69
2022/09/05 02:36:45;;;;;;;6.28;3.88;;;;;;;11.79;100.00;96372.06;1042623;28;20290;-71
2022/09/05 02:37:18;;;;;;;4.75;4.05;;;;;;;11.83;100.00;96372.34;1031480;28;20277;-71
2022/09/05 02:38:13;;;;;;;8.55;4.57;;;;;;;11.84;100.00;96375.78;1033879;28;20022;-70
2022/09/05 02:38:45;;;;;;;6.93;4.53;;;;;;;11.81;100.00;96374.47;1031649;28;20272;-71
2022/09/05 02:39:33;;;;;;;5.88;4.45;;;;;;;11.80;100.00;96371.06;1035118;28;20336;-70
2022/09/05 02:40:25;;;;;;;6.35;4.40;;;;;;;11.81;100.00;96377.09;1035763;28;20787;-71
2022/09/05 02:41:06;;;;;;;7.57;4.32;;;;;;;11.80;100.00;96372.88;1029896;28;20296;-72
2022/09/05 02:41:42;;;;;;;5.28;4.38;;;;;;;11.78;100.00;96377.59;1031635;28;20269;-71
2022/09/05 02:42:34;;;;;;;8.32;4.72;;;;;;;11.77;100.00;96373.41;1027711;28;20388;-71
2022/09/05 02:43:34;;;;;;;6.47;4.28;;;;;;;11.75;100.00;96373.63;1027789;28;20324;-71
2022/09/05 02:44:26;;;;;;;5.25;4.30;;;;;;;11.74;100.00;96368.66;1034338;28;20364;-72
2022/09/05 02:45:17;;;;;;;8.82;4.53;;;;;;;11.73;100.00;96369.66;1041621;28;20251;-71
2022/09/05 02:45:55;;;;;;;5.32;4.40;;;;;;;11.73;100.00;96367.03;1037418;28;20367;-71
2022/09/05 02:46:29;;;;;;;6.47;4.75;;;;;;;11.75;100.00;96367.59;1031661;28;20297;-71
2022/09/05 02:47:14;;;;;;;4.93;4.32;;;;;;;11.71;100.00;96361.25;1027480;28;20790;-71
2022/09/05 02:48:07;;;;;;;5.93;4.35;;;;;;;11.78;100.00;96364.47;1031795;28;20328;-71
2022/09/05 02:48:43;;;;;;;9.70;4.97;;;;;;;11.79;100.00;96373.91;1031579;28;20277;-71
2022/09/05 02:49:18;;;;;;;20.20;6.03;;;;;;;11.79;100.00;96373.91;1030840;28;20763;-71
2022/09/05 02:50:26;;;;;;;24.92;6.25;;;;;;;11.80;100.00;96371.06;1034630;28;20689;-71
2022/09/05 02:51:11;;;;;;;13.50;4.95;;;;;;;11.82;100.00;96364.75;1043670;28;20256;-71
2022/09/05 02:51:56;;;;;;;16.77;5.25;;;;;;;11.81;100.00;96366.56;1039685;28;20272;-71
2022/09/05 02:52:29;;;;;;;10.90;5.22;;;;;;;11.84;100.00;96371.38;1031541;28;20332;-70
2022/09/05 02:52:59;;;;;;;6.15;4.53;;;;;;;11.82;100.00;96372.63;1023295;29;20270;-71
2022/09/05 02:53:32;;;;;;;6.40;4.40;;;;;;;11.83;100.00;96375.00;1027489;28;20274;-70
2022/09/05 02:54:11;;;;;;;7.22;4.30;;;;;;;11.82;100.00;96372.63;1035531;28;20116;-69
2022/09/05 02:54:43;;;;;;;10.00;4.90;;;;;;;11.81;100.00;96377.09;1035410;28;20271;-71
2022/09/05 02:55:41;;;;;;;7.70;4.57;;;;;;;11.79;100.00;96369.44;1023464;29;20267;-70
2022/09/05 02:56:31;;;;;;;7.10;3.92;;;;;;;11.80;100.00;96380.75;1021159;28;20264;-71
2022/09/05 02:57:37;;;;;;;6.50;4.65;;;;;;;11.79;100.00;96368.66;1036306;28;20793;-71
2022/09/05 02:58:33;;;;;;;7.00;4.90;;;;;;;11.78;100.00;96377.59;1031413;28;20325;-70
2022/09/05 02:59:09;;;;;;;9.75;4.60;;;;;;;11.76;100.00;96375.22;1035017;28;20777;-71
2022/09/05 03:00:10;;;;;;;9.20;5.05;;;;;;;11.77;100.00;96370.78;1038350;28;20340;-72
2022/09/05 03:00:45;;;;;;;9.68;4.97;;;;;;;11.76;100.00;96371.78;1040392;28;20260;-71
2022/09/05 03:01:45;;;;;;;6.60;4.65;;;;;;;11.75;100.00;96373.63;1035461;28;20275;-71
2022/09/05 03:02:22;;;;;;;6.00;4.55;;;;;;;11.74;100.00;96371.28;1031115;28;20265;-71
2022/09/05 03:03:13;;;;;;;6.00;5.10;;;;;;;11.74;100.00;96371.28;1023812;28;20267;-71
2022/09/05 03:04:11;;;;;;;7.40;4.47;;;;;;;11.72;100.00;96368.09;1031402;28;20241;-71
2022/09/05 03:05:07;;;;;;;8.70;4.55;;;;;;;11.73;100.00;96372.31;1036904;28;20249;-70
2022/09/05 03:05:46;;;;;;;11.85;4.60;;;;;;;11.70;100.00;96367.53;1035477;28;20268;-70
2022/09/05 03:06:16;;;;;;;6.80;4.80;;;;;;;11.73;100.00;96364.41;1028039;28;20843;-69
2022/09/05 03:06:53;;;;;;;5.78;5.03;;;;;;;11.73;100.00;96370.47;1034338;28;20352;-69
2022/09/05 03:07:36;;;;;;;10.13;4.82;;;;;;;11.73;100.00;96364.41;1039721;28;20061;-71
2022/09/05 03:08:10;;;;;;;7.05;4.78;;;;;;;11.73;100.00;96372.31;1039497;28;20789;-70
2022/09/05 03:09:01;;;;;;;8.40;4.80;;;;;;;11.71;100.00;96369.94;1039730;28;20323;-71
2022/09/05 03:09:42;;;;;;;9.65;4.85;;;;;;;11.67;100.00;96360.97;1035657;28;20265;-71
2022/09/05 03:10:34;;;;;;;9.27;5.28;;;;;;;11.73;100.00;96370.47;1038669;28;20256;-70
2022/09/05 03:11:13;;;;;;;13.95;5.85;;;;;;;11.65;100.00;96360.44;1035490;28;20280;-70
2022/09/05 03:11:59;;;;;;;9.57;4.97;;;;;;;11.73;100.00;96372.31;1031166;28;20448;-69
2022/09/05 03:12:38;;;;;;;9.57;4.88;;;;;;;11.73;100.00;96369.66;1028914;28;20250;-68
2022/09/05 03:13:30;;;;;;;8.75;4.80;;;;;;;11.72;100.00;96370.72;1031478;28;20261;-67
2022/09/05 03:14:19;;;;;;;18.05;5.53;;;;;;;11.71;100.00;96372.56;1039512;28;20379;-70
2022/09/05 03:15:17;;;;;;;7.90;4.80;;;;;;;11.72;100.00;96368.09;1035490;28;20348;-69
2022/09/05 03:16:06;;;;;;;6.90;4.43;;;;;;;11.70;100.00;96372.81;1035456;28;20245;-69
2022/09/05 03:17:01;;;;;;;7.55;5.13;;;;;;;11.67;100.00;96371.50;1037886;28;20277;-71
2022/09/05 03:18:02;;;;;;;6.00;4.22;;;;;;;11.66;100.00;96369.09;1035668;28;20261;-67
2022/09/05 03:18:51;;;;;;;;;;;;;;;11.64;100.00;96365.94;1037572;28;20253;-71
2022/09/05 03:19:38;;;;;;;6.63;4.40;;;;;;;11.64;100.00;96373.84;1043265;28;19908;-70
2022/09/05 03:20:27;;;;;;;5.88;4.60;;;;;;;11.65;100.00;96375.41;1043598;28;20648;-70
2022/09/05 03:21:14;;;;;;;5.13;3.97;;;;;;;11.64;100.00;96366.75;1035427;28;20335;-68
2022/09/05 03:21:56;;;;;;;5.93;4.68;;;;;;;11.68;100.00;96367.03;1031558;28;20281;-72
2022/09/05 03:23:15;;;;;;;6.05;4.80;;;;;;;11.68;100.00;96361.78;1027433;28;20269;-71
2022/09/05 03:24:25;;;;;;;6.32;4.15;;;;;;;11.68;100.00;96367.81;1026889;28;20647;-70
2022/09/05 03:25:18;;;;;;;7.70;4.60;;;;;;;11.67;100.00;96366.25;1040119;28;20263;-72
2022/09/05 03:26:27;;;;;;;5.40;4.30;;;;;;;11.68;100.00;96361.78;1024916;28;20341;-70
2022/09/05 03:27:19;;;;;;;5.75;4.65;;;;;;;11.65;100.00;96357.00;1023904;28;20322;-71
2022/09/05 03:27:52;;;;;;;8.30;4.50;;;;;;;11.64;100.00;96358.06;1038451;28;20298;-71
2022/09/05 03:29:00;;;;;;;4.80;4.32;;;;;;;11.63;100.00;96359.09;1039681;28;20318;-71
2022/09/05 03:29:30;;;;;;;8.57;4.90;;;;;;;11.62;100.00;96355.69;1039348;28;20255;-72
2022/09/05 03:30:10;;;;;;;9.95;4.90;;;;;;;11.62;100.00;96353.03;1036366;28;20674;-71
2022/09/05 03:31:15;;;;;;;10.65;6.55;;;;;;;11.61;100.00;96358.56;1034841;28;20104;-70
2022/09/05 03:31:45;;;;;;;8.57;4.57;;;;;;;11.61;100.00;96351.47;1037235;28;20044;-71
2022/09/05 03:32:38;;;;;;;6.15;4.53;;;;;;;11.61;100.00;96355.94;1040454;28;20256;-70
2022/09/05 03:33:38;;;;;;;6.40;5.32;;;;;;;11.60;100.00;96359.59;1043684;28;20565;-72
2022/09/05 03:34:20;;;;;;;6.22;5.05;;;;;;;11.59;100.00;96364.06;1038039;28;20326;-71
2022/09/05 03:35:11;;;;;;;7.53;5.60;;;;;;;11.59;100.00;96355.41;1033905;28;20601;-70
2022/09/05 03:36:09;;;;;;;5.30;4.68;;;;;;;11.57;100.00;96361.69;1033633;28;20286;-72
2022/09/05 03:37:04;;;;;;;6.75;5.03;;;;;;;11.57;100.00;96358.28;1038460;28;20032;-71